Terminal Aerodrome Forecast
Issued by NWS

Home | Current Version | Previous Version | Text Only | Print | Product List | Glossary On
Versions: 1 2 3 4 5 6 7 8 9 10 11 12 13 14 15
000
FTUS45 KRIW 252336
TAFCOD
TAF
KCOD 252336Z 2600/2624 35007KT P6SM FEW025 SCT060
     FM260400 25007KT P6SM SCT090
     FM261400 VRB08KT P6SM VCSH SCT050 BKN080
     FM261900 24012G17KT P6SM BKN080
      AMD LTD TO CLD VIS AND WIND=

USA.gov is the U.S. government's official web portal to all federal, state and local government web resources and services.